sensor_id;sensor_type;location;lat;lon;timestamp;P1;durP1;ratioP1;P2;durP2;ratioP2
27495;SDS011;14929;51.336;9.416;2022-09-20T00:01:19;2.78;;;1.20;;
27495;SDS011;14929;51.336;9.416;2022-09-20T00:03:48;3.78;;;1.30;;
27495;SDS011;14929;51.336;9.416;2022-09-20T00:06:18;5.40;;;1.73;;
27495;SDS011;14929;51.336;9.416;2022-09-20T00:08:49;1.88;;;1.50;;
27495;SDS011;14929;51.336;9.416;2022-09-20T00:11:17;4.03;;;1.30;;
27495;SDS011;14929;51.336;9.416;2022-09-20T00:13:50;1.50;;;1.30;;
27495;SDS011;14929;51.336;9.416;2022-09-20T00:16:21;2.13;;;1.20;;
27495;SDS011;14929;51.336;9.416;2022-09-20T00:18:49;3.78;;;1.70;;
27495;SDS011;14929;51.336;9.416;2022-09-20T00:21:19;3.55;;;1.63;;
27495;SDS011;14929;51.336;9.416;2022-09-20T00:23:50;2.25;;;1.60;;
27495;SDS011;14929;51.336;9.416;2022-09-20T00:26:18;2.88;;;1.95;;
27495;SDS011;14929;51.336;9.416;2022-09-20T00:28:47;1.42;;;1.33;;
27495;SDS011;14929;51.336;9.416;2022-09-20T00:31:16;2.17;;;1.58;;
27495;SDS011;14929;51.336;9.416;2022-09-20T00:33:43;2.75;;;1.30;;
27495;SDS011;14929;51.336;9.416;2022-09-20T00:36:29;3.17;;;1.50;;
27495;SDS011;14929;51.336;9.416;2022-09-20T00:38:57;3.22;;;1.20;;
27495;SDS011;14929;51.336;9.416;2022-09-20T00:41:27;4.65;;;1.60;;
27495;SDS011;14929;51.336;9.416;2022-09-20T00:43:57;3.97;;;1.50;;
27495;SDS011;14929;51.336;9.416;2022-09-20T00:46:26;3.20;;;1.20;;
27495;SDS011;14929;51.336;9.416;2022-09-20T00:49:02;1.85;;;1.30;;
27495;SDS011;14929;51.336;9.416;2022-09-20T00:51:33;2.08;;;1.25;;
27495;SDS011;14929;51.336;9.416;2022-09-20T00:54:02;4.18;;;1.65;;
27495;SDS011;14929;51.336;9.416;2022-09-20T00:56:31;5.43;;;1.67;;
27495;SDS011;14929;51.336;9.416;2022-09-20T00:59:07;3.33;;;1.38;;
27495;SDS011;14929;51.336;9.416;2022-09-20T01:01:40;2.28;;;1.33;;
27495;SDS011;14929;51.336;9.416;2022-09-20T01:04:08;3.25;;;1.33;;
27495;SDS011;14929;51.336;9.416;2022-09-20T01:06:38;5.35;;;1.80;;
27495;SDS011;14929;51.336;9.416;2022-09-20T01:09:06;2.40;;;1.45;;
27495;SDS011;14929;51.336;9.416;2022-09-20T01:11:34;3.22;;;1.52;;
27495;SDS011;14929;51.336;9.416;2022-09-20T01:14:04;2.42;;;1.77;;
27495;SDS011;14929;51.336;9.416;2022-09-20T01:16:31;4.25;;;1.55;;
27495;SDS011;14929;51.336;9.416;2022-09-20T01:18:59;1.27;;;0.90;;
27495;SDS011;14929;51.336;9.416;2022-09-20T01:21:31;2.75;;;1.88;;
27495;SDS011;14929;51.336;9.416;2022-09-20T01:23:59;2.22;;;1.30;;
27495;SDS011;14929;51.336;9.416;2022-09-20T01:26:36;4.93;;;1.85;;
27495;SDS011;14929;51.336;9.416;2022-09-20T01:29:41;2.72;;;1.15;;
27495;SDS011;14929;51.336;9.416;2022-09-20T01:32:31;2.75;;;1.35;;
27495;SDS011;14929;51.336;9.416;2022-09-20T01:35:11;1.75;;;1.02;;
27495;SDS011;14929;51.336;9.416;2022-09-20T01:37:43;2.08;;;1.10;;
27495;SDS011;14929;51.336;9.416;2022-09-20T01:40:22;3.97;;;1.65;;
27495;SDS011;14929;51.336;9.416;2022-09-20T01:42:57;2.13;;;1.25;;
27495;SDS011;14929;51.336;9.416;2022-09-20T01:45:32;2.75;;;1.40;;
27495;SDS011;14929;51.336;9.416;2022-09-20T01:48:03;2.78;;;1.48;;
27495;SDS011;14929;51.336;9.416;2022-09-20T01:50:45;2.30;;;1.33;;
27495;SDS011;14929;51.336;9.416;2022-09-20T01:53:48;2.33;;;1.20;;
27495;SDS011;14929;51.336;9.416;2022-09-20T01:57:06;2.05;;;1.25;;
27495;SDS011;14929;51.336;9.416;2022-09-20T02:00:08;2.13;;;1.17;;
27495;SDS011;14929;51.336;9.416;2022-09-20T02:02:54;3.17;;;1.40;;
27495;SDS011;14929;51.336;9.416;2022-09-20T02:05:46;4.47;;;2.45;;
27495;SDS011;14929;51.336;9.416;2022-09-20T02:08:35;2.33;;;1.48;;
27495;SDS011;14929;51.336;9.416;2022-09-20T02:11:45;2.42;;;1.35;;
27495;SDS011;14929;51.336;9.416;2022-09-20T02:14:34;2.90;;;1.60;;
27495;SDS011;14929;51.336;9.416;2022-09-20T02:17:11;2.72;;;1.20;;
27495;SDS011;14929;51.336;9.416;2022-09-20T02:22:47;2.40;;;1.40;;
27495;SDS011;14929;51.336;9.416;2022-09-20T02:25:48;3.38;;;1.88;;
27495;SDS011;14929;51.336;9.416;2022-09-20T02:28:41;2.13;;;1.27;;
27495;SDS011;14929;51.336;9.416;2022-09-20T02:31:22;3.08;;;1.60;;
27495;SDS011;14929;51.336;9.416;2022-09-20T02:34:28;5.22;;;1.52;;
27495;SDS011;14929;51.336;9.416;2022-09-20T02:40:25;6.10;;;2.10;;
27495;SDS011;14929;51.336;9.416;2022-09-20T02:43:07;3.55;;;1.42;;
27495;SDS011;14929;51.336;9.416;2022-09-20T02:45:41;4.18;;;1.50;;
27495;SDS011;14929;51.336;9.416;2022-09-20T02:48:16;4.50;;;2.08;;
27495;SDS011;14929;51.336;9.416;2022-09-20T02:50:50;2.90;;;1.80;;
27495;SDS011;14929;51.336;9.416;2022-09-20T02:53:29;5.07;;;1.58;;
27495;SDS011;14929;51.336;9.416;2022-09-20T02:56:05;2.50;;;1.40;;
27495;SDS011;14929;51.336;9.416;2022-09-20T02:58:41;5.25;;;2.22;;
27495;SDS011;14929;51.336;9.416;2022-09-20T03:01:18;2.75;;;1.45;;
27495;SDS011;14929;51.336;9.416;2022-09-20T03:04:10;3.78;;;1.70;;
27495;SDS011;14929;51.336;9.416;2022-09-20T03:06:50;2.95;;;1.70;;
27495;SDS011;14929;51.336;9.416;2022-09-20T03:09:26;2.72;;;1.55;;
27495;SDS011;14929;51.336;9.416;2022-09-20T03:12:01;3.03;;;1.98;;
27495;SDS011;14929;51.336;9.416;2022-09-20T03:14:40;3.80;;;1.80;;
27495;SDS011;14929;51.336;9.416;2022-09-20T03:17:16;3.92;;;1.55;;
27495;SDS011;14929;51.336;9.416;2022-09-20T03:22:47;2.47;;;1.70;;
27495;SDS011;14929;51.336;9.416;2022-09-20T03:25:30;3.40;;;2.30;;
27495;SDS011;14929;51.336;9.416;2022-09-20T03:28:32;1.70;;;1.60;;
27495;SDS011;14929;51.336;9.416;2022-09-20T03:31:12;1.38;;;1.20;;
27495;SDS011;14929;51.336;9.416;2022-09-20T03:33:50;2.47;;;1.60;;
27495;SDS011;14929;51.336;9.416;2022-09-20T03:36:30;2.55;;;1.70;;
27495;SDS011;14929;51.336;9.416;2022-09-20T03:39:16;4.00;;;1.83;;
27495;SDS011;14929;51.336;9.416;2022-09-20T03:42:28;3.05;;;1.67;;
27495;SDS011;14929;51.336;9.416;2022-09-20T03:45:06;5.78;;;1.98;;
27495;SDS011;14929;51.336;9.416;2022-09-20T03:48:16;3.03;;;1.75;;
27495;SDS011;14929;51.336;9.416;2022-09-20T03:50:58;4.93;;;1.70;;
27495;SDS011;14929;51.336;9.416;2022-09-20T03:53:57;3.60;;;1.95;;
27495;SDS011;14929;51.336;9.416;2022-09-20T04:00:20;2.25;;;1.90;;
27495;SDS011;14929;51.336;9.416;2022-09-20T04:02:53;2.47;;;1.90;;
27495;SDS011;14929;51.336;9.416;2022-09-20T04:05:46;4.38;;;1.85;;
27495;SDS011;14929;51.336;9.416;2022-09-20T04:08:31;10.02;;;2.92;;
27495;SDS011;14929;51.336;9.416;2022-09-20T04:11:15;2.42;;;2.10;;
27495;SDS011;14929;51.336;9.416;2022-09-20T04:13:51;2.63;;;2.08;;
27495;SDS011;14929;51.336;9.416;2022-09-20T04:16:25;4.93;;;2.50;;
27495;SDS011;14929;51.336;9.416;2022-09-20T04:19:00;4.03;;;2.20;;
27495;SDS011;14929;51.336;9.416;2022-09-20T04:21:37;6.38;;;2.80;;
27495;SDS011;14929;51.336;9.416;2022-09-20T04:24:10;3.72;;;2.22;;
27495;SDS011;14929;51.336;9.416;2022-09-20T04:26:43;3.05;;;2.15;;
27495;SDS011;14929;51.336;9.416;2022-09-20T04:29:23;4.80;;;2.63;;
27495;SDS011;14929;51.336;9.416;2022-09-20T04:31:58;2.67;;;2.35;;
27495;SDS011;14929;51.336;9.416;2022-09-20T04:34:34;6.45;;;2.50;;
27495;SDS011;14929;51.336;9.416;2022-09-20T04:37:26;2.90;;;2.15;;
27495;SDS011;14929;51.336;9.416;2022-09-20T04:39:58;3.35;;;2.03;;
27495;SDS011;14929;51.336;9.416;2022-09-20T04:42:44;4.32;;;1.90;;
27495;SDS011;14929;51.336;9.416;2022-09-20T04:49:38;4.70;;;2.13;;
27495;SDS011;14929;51.336;9.416;2022-09-20T04:52:59;2.92;;;2.03;;
27495;SDS011;14929;51.336;9.416;2022-09-20T04:55:52;4.00;;;2.03;;
27495;SDS011;14929;51.336;9.416;2022-09-20T05:05:06;3.10;;;2.30;;
27495;SDS011;14929;51.336;9.416;2022-09-20T05:08:19;5.63;;;2.90;;
27495;SDS011;14929;51.336;9.416;2022-09-20T05:14:38;3.30;;;2.28;;
27495;SDS011;14929;51.336;9.416;2022-09-20T05:17:27;5.60;;;2.55;;
27495;SDS011;14929;51.336;9.416;2022-09-20T05:26:12;4.43;;;2.70;;
27495;SDS011;14929;51.336;9.416;2022-09-20T05:28:49;3.25;;;2.45;;
27495;SDS011;14929;51.336;9.416;2022-09-20T05:31:24;4.05;;;2.20;;
27495;SDS011;14929;51.336;9.416;2022-09-20T05:34:06;5.45;;;2.75;;
27495;SDS011;14929;51.336;9.416;2022-09-20T05:36:44;2.65;;;2.30;;
27495;SDS011;14929;51.336;9.416;2022-09-20T05:39:28;2.85;;;2.40;;
27495;SDS011;14929;51.336;9.416;2022-09-20T05:42:04;4.25;;;2.17;;
27495;SDS011;14929;51.336;9.416;2022-09-20T05:44:45;3.28;;;2.30;;
27495;SDS011;14929;51.336;9.416;2022-09-20T05:47:23;2.20;;;2.00;;
27495;SDS011;14929;51.336;9.416;2022-09-20T05:50:14;2.80;;;2.17;;
27495;SDS011;14929;51.336;9.416;2022-09-20T05:53:02;2.75;;;2.35;;
27495;SDS011;14929;51.336;9.416;2022-09-20T05:56:10;5.72;;;2.00;;
27495;SDS011;14929;51.336;9.416;2022-09-20T05:58:53;3.60;;;2.20;;
27495;SDS011;14929;51.336;9.416;2022-09-20T06:01:31;3.03;;;2.05;;
27495;SDS011;14929;51.336;9.416;2022-09-20T06:04:05;3.42;;;2.00;;
27495;SDS011;14929;51.336;9.416;2022-09-20T06:06:46;4.35;;;2.20;;
27495;SDS011;14929;51.336;9.416;2022-09-20T06:09:36;3.08;;;2.17;;
27495;SDS011;14929;51.336;9.416;2022-09-20T06:12:14;6.82;;;2.67;;
27495;SDS011;14929;51.336;9.416;2022-09-20T06:15:10;2.95;;;2.33;;
27495;SDS011;14929;51.336;9.416;2022-09-20T06:17:47;2.25;;;2.03;;
27495;SDS011;14929;51.336;9.416;2022-09-20T06:20:23;6.85;;;2.85;;
27495;SDS011;14929;51.336;9.416;2022-09-20T06:22:56;3.05;;;2.75;;
27495;SDS011;14929;51.336;9.416;2022-09-20T06:25:27;5.05;;;2.63;;
27495;SDS011;14929;51.336;9.416;2022-09-20T06:27:57;4.30;;;2.33;;
27495;SDS011;14929;51.336;9.416;2022-09-20T06:30:28;3.90;;;2.67;;
27495;SDS011;14929;51.336;9.416;2022-09-20T06:33:00;6.80;;;2.95;;
27495;SDS011;14929;51.336;9.416;2022-09-20T06:35:41;3.40;;;2.33;;
27495;SDS011;14929;51.336;9.416;2022-09-20T06:41:22;6.82;;;2.10;;
27495;SDS011;14929;51.336;9.416;2022-09-20T06:43:56;2.22;;;1.90;;
27495;SDS011;14929;51.336;9.416;2022-09-20T06:46:25;2.83;;;1.90;;
27495;SDS011;14929;51.336;9.416;2022-09-20T06:48:53;3.53;;;2.13;;
27495;SDS011;14929;51.336;9.416;2022-09-20T06:51:21;3.10;;;1.95;;
27495;SDS011;14929;51.336;9.416;2022-09-20T06:53:51;6.90;;;2.20;;
27495;SDS011;14929;51.336;9.416;2022-09-20T06:56:19;2.90;;;1.70;;
27495;SDS011;14929;51.336;9.416;2022-09-20T06:58:49;2.17;;;1.48;;
27495;SDS011;14929;51.336;9.416;2022-09-20T07:01:17;3.83;;;1.60;;
27495;SDS011;14929;51.336;9.416;2022-09-20T07:03:44;4.40;;;1.63;;
27495;SDS011;14929;51.336;9.416;2022-09-20T07:06:12;3.55;;;2.05;;
27495;SDS011;14929;51.336;9.416;2022-09-20T07:08:42;1.88;;;1.30;;
27495;SDS011;14929;51.336;9.416;2022-09-20T07:11:12;1.58;;;1.20;;
27495;SDS011;14929;51.336;9.416;2022-09-20T07:13:41;2.38;;;1.45;;
27495;SDS011;14929;51.336;9.416;2022-09-20T07:16:10;3.83;;;2.50;;
27495;SDS011;14929;51.336;9.416;2022-09-20T07:18:39;3.92;;;1.73;;
27495;SDS011;14929;51.336;9.416;2022-09-20T07:21:07;3.97;;;1.60;;
27495;SDS011;14929;51.336;9.416;2022-09-20T07:23:36;4.03;;;1.60;;
27495;SDS011;14929;51.336;9.416;2022-09-20T07:26:04;2.75;;;1.85;;
27495;SDS011;14929;51.336;9.416;2022-09-20T07:28:33;2.33;;;2.00;;
27495;SDS011;14929;51.336;9.416;2022-09-20T07:31:01;4.60;;;1.70;;
27495;SDS011;14929;51.336;9.416;2022-09-20T07:33:28;5.68;;;2.13;;
27495;SDS011;14929;51.336;9.416;2022-09-20T07:35:56;2.78;;;1.52;;
27495;SDS011;14929;51.336;9.416;2022-09-20T07:38:24;4.43;;;2.05;;
27495;SDS011;14929;51.336;9.416;2022-09-20T07:40:54;3.53;;;1.92;;
27495;SDS011;14929;51.336;9.416;2022-09-20T07:43:22;2.00;;;1.60;;
27495;SDS011;14929;51.336;9.416;2022-09-20T07:45:51;2.35;;;1.50;;
27495;SDS011;14929;51.336;9.416;2022-09-20T07:48:20;1.67;;;1.38;;
27495;SDS011;14929;51.336;9.416;2022-09-20T07:50:50;1.73;;;1.58;;
27495;SDS011;14929;51.336;9.416;2022-09-20T07:53:18;5.03;;;1.98;;
27495;SDS011;14929;51.336;9.416;2022-09-20T07:55:55;5.25;;;1.75;;
27495;SDS011;14929;51.336;9.416;2022-09-20T07:58:23;3.25;;;1.60;;
27495;SDS011;14929;51.336;9.416;2022-09-20T08:00:53;4.45;;;2.00;;
27495;SDS011;14929;51.336;9.416;2022-09-20T08:03:22;4.35;;;1.85;;
27495;SDS011;14929;51.336;9.416;2022-09-20T08:05:49;2.05;;;1.30;;
27495;SDS011;14929;51.336;9.416;2022-09-20T08:08:18;3.00;;;1.85;;
27495;SDS011;14929;51.336;9.416;2022-09-20T08:10:45;7.35;;;2.25;;
27495;SDS011;14929;51.336;9.416;2022-09-20T08:13:13;3.63;;;1.75;;
27495;SDS011;14929;51.336;9.416;2022-09-20T08:15:41;5.03;;;2.00;;
27495;SDS011;14929;51.336;9.416;2022-09-20T08:18:10;1.63;;;1.30;;
27495;SDS011;14929;51.336;9.416;2022-09-20T08:20:38;3.38;;;1.88;;
27495;SDS011;14929;51.336;9.416;2022-09-20T08:23:06;4.05;;;1.80;;
27495;SDS011;14929;51.336;9.416;2022-09-20T08:25:34;7.40;;;3.05;;
27495;SDS011;14929;51.336;9.416;2022-09-20T08:28:03;5.60;;;2.33;;
27495;SDS011;14929;51.336;9.416;2022-09-20T08:30:30;6.10;;;2.00;;
27495;SDS011;14929;51.336;9.416;2022-09-20T08:32:58;2.10;;;1.90;;
27495;SDS011;14929;51.336;9.416;2022-09-20T08:35:27;3.65;;;1.98;;
27495;SDS011;14929;51.336;9.416;2022-09-20T08:37:55;2.28;;;2.00;;
27495;SDS011;14929;51.336;9.416;2022-09-20T08:40:23;3.72;;;2.08;;
27495;SDS011;14929;51.336;9.416;2022-09-20T08:42:51;4.28;;;2.55;;
27495;SDS011;14929;51.336;9.416;2022-09-20T08:45:20;2.95;;;2.00;;
27495;SDS011;14929;51.336;9.416;2022-09-20T08:47:50;3.00;;;2.20;;
27495;SDS011;14929;51.336;9.416;2022-09-20T08:50:20;4.03;;;2.22;;
27495;SDS011;14929;51.336;9.416;2022-09-20T08:52:53;3.05;;;2.10;;
27495;SDS011;14929;51.336;9.416;2022-09-20T08:55:23;3.80;;;2.10;;
27495;SDS011;14929;51.336;9.416;2022-09-20T08:57:55;4.63;;;2.30;;
27495;SDS011;14929;51.336;9.416;2022-09-20T09:00:25;2.40;;;2.13;;
27495;SDS011;14929;51.336;9.416;2022-09-20T09:02:57;3.03;;;2.45;;
27495;SDS011;14929;51.336;9.416;2022-09-20T09:05:29;5.10;;;2.53;;
27495;SDS011;14929;51.336;9.416;2022-09-20T09:08:01;4.50;;;2.95;;
27495;SDS011;14929;51.336;9.416;2022-09-20T09:10:34;3.10;;;2.17;;
27495;SDS011;14929;51.336;9.416;2022-09-20T09:13:04;4.20;;;2.78;;
27495;SDS011;14929;51.336;9.416;2022-09-20T09:15:32;2.83;;;2.20;;
27495;SDS011;14929;51.336;9.416;2022-09-20T09:18:01;4.20;;;2.13;;
27495;SDS011;14929;51.336;9.416;2022-09-20T09:20:30;2.50;;;1.90;;
27495;SDS011;14929;51.336;9.416;2022-09-20T09:23:19;3.17;;;2.20;;
27495;SDS011;14929;51.336;9.416;2022-09-20T09:25:52;3.90;;;3.28;;
27495;SDS011;14929;51.336;9.416;2022-09-20T09:28:21;3.72;;;2.15;;
27495;SDS011;14929;51.336;9.416;2022-09-20T09:30:50;6.57;;;2.00;;
27495;SDS011;14929;51.336;9.416;2022-09-20T09:33:22;3.38;;;1.98;;
27495;SDS011;14929;51.336;9.416;2022-09-20T09:35:58;2.22;;;1.60;;
27495;SDS011;14929;51.336;9.416;2022-09-20T09:38:33;3.40;;;1.92;;
27495;SDS011;14929;51.336;9.416;2022-09-20T09:41:04;3.72;;;2.33;;
27495;SDS011;14929;51.336;9.416;2022-09-20T09:43:36;6.18;;;2.70;;
27495;SDS011;14929;51.336;9.416;2022-09-20T09:46:17;1.67;;;1.58;;
27495;SDS011;14929;51.336;9.416;2022-09-20T09:48:47;1.85;;;1.60;;
27495;SDS011;14929;51.336;9.416;2022-09-20T09:51:33;7.90;;;1.60;;
27495;SDS011;14929;51.336;9.416;2022-09-20T09:54:03;2.38;;;1.50;;
27495;SDS011;14929;51.336;9.416;2022-09-20T09:56:35;1.60;;;1.50;;
27495;SDS011;14929;51.336;9.416;2022-09-20T09:59:21;3.28;;;1.55;;
27495;SDS011;14929;51.336;9.416;2022-09-20T10:02:15;1.73;;;1.48;;
27495;SDS011;14929;51.336;9.416;2022-09-20T10:05:15;1.42;;;1.20;;
27495;SDS011;14929;51.336;9.416;2022-09-20T10:07:48;2.45;;;1.10;;
27495;SDS011;14929;51.336;9.416;2022-09-20T10:10:27;2.22;;;1.23;;
27495;SDS011;14929;51.336;9.416;2022-09-20T10:13:03;1.20;;;1.10;;
27495;SDS011;14929;51.336;9.416;2022-09-20T10:15:40;2.47;;;1.50;;
27495;SDS011;14929;51.336;9.416;2022-09-20T10:18:16;2.13;;;1.17;;
27495;SDS011;14929;51.336;9.416;2022-09-20T10:20:58;2.45;;;1.20;;
27495;SDS011;14929;51.336;9.416;2022-09-20T10:23:39;2.70;;;1.33;;
27495;SDS011;14929;51.336;9.416;2022-09-20T10:26:28;1.50;;;1.08;;
27495;SDS011;14929;51.336;9.416;2022-09-20T10:29:11;2.83;;;1.20;;
27495;SDS011;14929;51.336;9.416;2022-09-20T10:31:52;2.45;;;1.40;;
27495;SDS011;14929;51.336;9.416;2022-09-20T10:34:34;1.08;;;1.00;;
27495;SDS011;14929;51.336;9.416;2022-09-20T10:37:20;3.15;;;1.67;;
27495;SDS011;14929;51.336;9.416;2022-09-20T10:39:55;2.38;;;1.10;;
27495;SDS011;14929;51.336;9.416;2022-09-20T10:42:34;1.67;;;1.35;;
27495;SDS011;14929;51.336;9.416;2022-09-20T10:45:28;2.13;;;1.27;;
27495;SDS011;14929;51.336;9.416;2022-09-20T10:48:02;3.13;;;1.10;;
27495;SDS011;14929;51.336;9.416;2022-09-20T10:50:34;2.83;;;1.45;;
27495;SDS011;14929;51.336;9.416;2022-09-20T10:53:14;2.33;;;1.92;;
27495;SDS011;14929;51.336;9.416;2022-09-20T10:55:55;2.60;;;1.52;;
27495;SDS011;14929;51.336;9.416;2022-09-20T10:58:37;1.05;;;1.05;;
27495;SDS011;14929;51.336;9.416;2022-09-20T11:01:25;2.78;;;1.15;;
27495;SDS011;14929;51.336;9.416;2022-09-20T11:04:08;1.05;;;0.90;;
27495;SDS011;14929;51.336;9.416;2022-09-20T11:06:54;1.40;;;1.10;;
27495;SDS011;14929;51.336;9.416;2022-09-20T11:09:33;2.17;;;1.27;;
27495;SDS011;14929;51.336;9.416;2022-09-20T11:12:05;1.42;;;1.02;;
27495;SDS011;14929;51.336;9.416;2022-09-20T11:14:41;4.57;;;1.70;;
27495;SDS011;14929;51.336;9.416;2022-09-20T11:17:14;1.58;;;1.10;;
27495;SDS011;14929;51.336;9.416;2022-09-20T11:19:49;1.45;;;0.95;;
27495;SDS011;14929;51.336;9.416;2022-09-20T11:22:22;1.58;;;1.00;;
27495;SDS011;14929;51.336;9.416;2022-09-20T11:24:54;5.90;;;2.15;;
27495;SDS011;14929;51.336;9.416;2022-09-20T11:27:27;1.85;;;1.00;;
27495;SDS011;14929;51.336;9.416;2022-09-20T11:30:00;1.20;;;1.10;;
27495;SDS011;14929;51.336;9.416;2022-09-20T11:32:33;1.77;;;1.10;;
27495;SDS011;14929;51.336;9.416;2022-09-20T11:35:17;1.65;;;1.00;;
27495;SDS011;14929;51.336;9.416;2022-09-20T11:37:52;2.08;;;0.95;;
27495;SDS011;14929;51.336;9.416;2022-09-20T11:40:30;1.98;;;1.30;;
27495;SDS011;14929;51.336;9.416;2022-09-20T11:43:01;3.78;;;1.08;;
27495;SDS011;14929;51.336;9.416;2022-09-20T11:45:32;2.70;;;0.88;;
27495;SDS011;14929;51.336;9.416;2022-09-20T11:48:01;1.70;;;1.27;;
27495;SDS011;14929;51.336;9.416;2022-09-20T11:50:37;2.92;;;1.23;;
27495;SDS011;14929;51.336;9.416;2022-09-20T11:53:41;2.10;;;1.10;;
27495;SDS011;14929;51.336;9.416;2022-09-20T11:56:19;1.70;;;1.00;;
27495;SDS011;14929;51.336;9.416;2022-09-20T11:58:49;6.90;;;1.38;;
27495;SDS011;14929;51.336;9.416;2022-09-20T12:01:24;2.78;;;1.10;;
27495;SDS011;14929;51.336;9.416;2022-09-20T12:03:54;1.63;;;0.90;;
27495;SDS011;14929;51.336;9.416;2022-09-20T12:06:24;2.35;;;0.98;;
27495;SDS011;14929;51.336;9.416;2022-09-20T12:08:55;1.30;;;0.90;;
27495;SDS011;14929;51.336;9.416;2022-09-20T12:11:28;1.83;;;1.00;;
27495;SDS011;14929;51.336;9.416;2022-09-20T12:14:00;1.15;;;1.05;;
27495;SDS011;14929;51.336;9.416;2022-09-20T12:16:41;1.90;;;0.90;;
27495;SDS011;14929;51.336;9.416;2022-09-20T12:19:10;2.88;;;0.73;;
27495;SDS011;14929;51.336;9.416;2022-09-20T12:28:31;2.38;;;1.27;;
27495;SDS011;14929;51.336;9.416;2022-09-20T12:34:27;0.80;;;0.80;;
27495;SDS011;14929;51.336;9.416;2022-09-20T12:39:51;0.55;;;0.55;;
27495;SDS011;14929;51.336;9.416;2022-09-20T12:42:25;1.70;;;1.17;;
27495;SDS011;14929;51.336;9.416;2022-09-20T12:44:57;2.60;;;0.90;;
27495;SDS011;14929;51.336;9.416;2022-09-20T12:47:28;1.13;;;0.88;;
27495;SDS011;14929;51.336;9.416;2022-09-20T12:49:59;2.78;;;0.95;;
27495;SDS011;14929;51.336;9.416;2022-09-20T12:52:51;1.23;;;0.85;;
27495;SDS011;14929;51.336;9.416;2022-09-20T12:55:26;1.15;;;0.95;;
27495;SDS011;14929;51.336;9.416;2022-09-20T12:58:03;1.05;;;0.70;;
27495;SDS011;14929;51.336;9.416;2022-09-20T13:00:36;2.78;;;0.65;;
27495;SDS011;14929;51.336;9.416;2022-09-20T13:03:10;0.63;;;0.60;;
27495;SDS011;14929;51.336;9.416;2022-09-20T13:05:50;1.35;;;0.73;;
27495;SDS011;14929;51.336;9.416;2022-09-20T13:08:59;0.80;;;0.73;;
27495;SDS011;14929;51.336;9.416;2022-09-20T13:11:32;1.25;;;0.70;;
27495;SDS011;14929;51.336;9.416;2022-09-20T13:14:05;0.85;;;0.73;;
27495;SDS011;14929;51.336;9.416;2022-09-20T13:16:39;0.65;;;0.65;;
27495;SDS011;14929;51.336;9.416;2022-09-20T13:19:16;0.70;;;0.70;;
27495;SDS011;14929;51.336;9.416;2022-09-20T13:21:49;0.60;;;0.60;;
27495;SDS011;14929;51.336;9.416;2022-09-20T13:24:22;3.45;;;0.80;;
27495;SDS011;14929;51.336;9.416;2022-09-20T13:26:52;1.13;;;1.00;;
27495;SDS011;14929;51.336;9.416;2022-09-20T13:29:25;1.42;;;1.00;;
27495;SDS011;14929;51.336;9.416;2022-09-20T13:34:42;1.58;;;0.70;;
27495;SDS011;14929;51.336;9.416;2022-09-20T13:37:14;0.82;;;0.52;;
27495;SDS011;14929;51.336;9.416;2022-09-20T13:39:45;2.88;;;1.33;;
27495;SDS011;14929;51.336;9.416;2022-09-20T13:42:13;1.85;;;0.93;;
27495;SDS011;14929;51.336;9.416;2022-09-20T13:44:44;0.98;;;0.82;;
27495;SDS011;14929;51.336;9.416;2022-09-20T13:47:21;5.28;;;0.90;;
27495;SDS011;14929;51.336;9.416;2022-09-20T13:49:51;2.00;;;0.65;;
27495;SDS011;14929;51.336;9.416;2022-09-20T13:52:24;1.08;;;1.00;;
27495;SDS011;14929;51.336;9.416;2022-09-20T13:54:54;1.33;;;0.88;;
27495;SDS011;14929;51.336;9.416;2022-09-20T13:57:23;1.88;;;1.00;;
27495;SDS011;14929;51.336;9.416;2022-09-20T13:59:53;0.60;;;0.60;;
27495;SDS011;14929;51.336;9.416;2022-09-20T14:02:22;1.88;;;0.90;;
27495;SDS011;14929;51.336;9.416;2022-09-20T14:04:53;1.70;;;1.02;;
27495;SDS011;14929;51.336;9.416;2022-09-20T14:07:24;1.02;;;0.98;;
27495;SDS011;14929;51.336;9.416;2022-09-20T14:09:53;1.23;;;0.77;;
27495;SDS011;14929;51.336;9.416;2022-09-20T14:12:23;1.63;;;0.80;;
27495;SDS011;14929;51.336;9.416;2022-09-20T14:14:51;0.70;;;0.70;;
27495;SDS011;14929;51.336;9.416;2022-09-20T14:17:20;0.82;;;0.80;;
27495;SDS011;14929;51.336;9.416;2022-09-20T14:19:50;0.45;;;0.45;;
27495;SDS011;14929;51.336;9.416;2022-09-20T14:22:19;0.80;;;0.70;;
27495;SDS011;14929;51.336;9.416;2022-09-20T14:24:56;1.33;;;0.88;;
27495;SDS011;14929;51.336;9.416;2022-09-20T14:27:26;0.70;;;0.70;;
27495;SDS011;14929;51.336;9.416;2022-09-20T14:29:55;1.48;;;0.70;;
27495;SDS011;14929;51.336;9.416;2022-09-20T14:32:35;1.42;;;0.95;;
27495;SDS011;14929;51.336;9.416;2022-09-20T14:35:06;4.45;;;0.85;;
27495;SDS011;14929;51.336;9.416;2022-09-20T14:37:43;1.60;;;0.68;;
27495;SDS011;14929;51.336;9.416;2022-09-20T14:40:20;0.68;;;0.47;;
27495;SDS011;14929;51.336;9.416;2022-09-20T14:42:52;1.38;;;0.63;;
27495;SDS011;14929;51.336;9.416;2022-09-20T14:45:23;1.80;;;0.68;;
27495;SDS011;14929;51.336;9.416;2022-09-20T14:47:58;1.45;;;1.35;;
27495;SDS011;14929;51.336;9.416;2022-09-20T14:50:29;0.75;;;0.75;;
27495;SDS011;14929;51.336;9.416;2022-09-20T14:52:59;1.55;;;0.60;;
27495;SDS011;14929;51.336;9.416;2022-09-20T14:55:32;1.52;;;0.80;;
27495;SDS011;14929;51.336;9.416;2022-09-20T14:58:03;1.75;;;1.15;;
27495;SDS011;14929;51.336;9.416;2022-09-20T15:00:45;1.23;;;1.00;;
27495;SDS011;14929;51.336;9.416;2022-09-20T15:03:15;1.20;;;0.88;;
27495;SDS011;14929;51.336;9.416;2022-09-20T15:05:46;1.02;;;0.80;;
27495;SDS011;14929;51.336;9.416;2022-09-20T15:08:17;0.63;;;0.63;;
27495;SDS011;14929;51.336;9.416;2022-09-20T15:10:46;0.90;;;0.90;;
27495;SDS011;14929;51.336;9.416;2022-09-20T15:13:14;0.70;;;0.70;;
27495;SDS011;14929;51.336;9.416;2022-09-20T15:15:41;1.27;;;0.90;;
27495;SDS011;14929;51.336;9.416;2022-09-20T15:18:13;2.08;;;1.20;;
27495;SDS011;14929;51.336;9.416;2022-09-20T15:20:48;1.75;;;0.90;;
27495;SDS011;14929;51.336;9.416;2022-09-20T15:23:18;1.08;;;0.70;;
27495;SDS011;14929;51.336;9.416;2022-09-20T15:25:48;0.60;;;0.57;;
27495;SDS011;14929;51.336;9.416;2022-09-20T15:28:16;0.60;;;0.60;;
27495;SDS011;14929;51.336;9.416;2022-09-20T15:30:44;0.30;;;0.30;;
27495;SDS011;14929;51.336;9.416;2022-09-20T15:33:14;0.32;;;0.32;;
27495;SDS011;14929;51.336;9.416;2022-09-20T15:35:43;0.50;;;0.50;;
27495;SDS011;14929;51.336;9.416;2022-09-20T15:38:11;1.73;;;0.68;;
27495;SDS011;14929;51.336;9.416;2022-09-20T15:40:41;0.68;;;0.68;;
27495;SDS011;14929;51.336;9.416;2022-09-20T15:43:11;1.13;;;0.70;;
27495;SDS011;14929;51.336;9.416;2022-09-20T15:45:46;0.70;;;0.70;;
27495;SDS011;14929;51.336;9.416;2022-09-20T15:48:15;1.10;;;1.05;;
27495;SDS011;14929;51.336;9.416;2022-09-20T15:50:52;1.60;;;0.75;;
27495;SDS011;14929;51.336;9.416;2022-09-20T15:53:27;1.48;;;0.77;;
27495;SDS011;14929;51.336;9.416;2022-09-20T15:55:59;0.68;;;0.68;;
27495;SDS011;14929;51.336;9.416;2022-09-20T15:58:28;1.48;;;1.00;;
27495;SDS011;14929;51.336;9.416;2022-09-20T16:01:01;1.00;;;0.70;;
27495;SDS011;14929;51.336;9.416;2022-09-20T16:03:30;1.00;;;0.52;;
27495;SDS011;14929;51.336;9.416;2022-09-20T16:05:58;0.80;;;0.80;;
27495;SDS011;14929;51.336;9.416;2022-09-20T16:08:29;1.10;;;0.60;;
27495;SDS011;14929;51.336;9.416;2022-09-20T16:10:58;0.98;;;0.80;;
27495;SDS011;14929;51.336;9.416;2022-09-20T16:13:27;1.50;;;0.80;;
27495;SDS011;14929;51.336;9.416;2022-09-20T16:15:54;0.60;;;0.60;;
27495;SDS011;14929;51.336;9.416;2022-09-20T16:18:22;0.60;;;0.60;;
27495;SDS011;14929;51.336;9.416;2022-09-20T16:21:07;0.82;;;0.80;;
27495;SDS011;14929;51.336;9.416;2022-09-20T16:23:36;1.15;;;0.60;;
27495;SDS011;14929;51.336;9.416;2022-09-20T16:26:05;0.93;;;0.93;;
27495;SDS011;14929;51.336;9.416;2022-09-20T16:28:37;1.65;;;1.15;;
27495;SDS011;14929;51.336;9.416;2022-09-20T16:31:04;0.73;;;0.73;;